createdAt,value
2023-10-10T00:02:26.431Z,101342.38
2023-10-10T00:04:57.099Z,101347.78
2023-10-10T00:07:28.811Z,101345.38
2023-10-10T00:09:57.343Z,101345.88
2023-10-10T00:12:30.237Z,101344.19
2023-10-10T00:15:02.905Z,101354.34
2023-10-10T00:17:36.663Z,101343.91
2023-10-10T00:20:18.114Z,101341.78
2023-10-10T00:22:49.152Z,101350.72
2023-10-10T00:25:18.617Z,101345.25
2023-10-10T00:27:48.598Z,101346.38
2023-10-10T00:30:17.380Z,101355.00
2023-10-10T00:32:47.663Z,101351.75
2023-10-10T00:35:18.909Z,101350.72
2023-10-10T00:37:46.711Z,101352.34
2023-10-10T00:40:30.683Z,101356.38
2023-10-10T00:43:08.483Z,101352.81
2023-10-10T00:45:37.462Z,101346.25
2023-10-10T00:48:05.568Z,101355.13
2023-10-10T00:50:38.001Z,101356.97
2023-10-10T00:53:12.888Z,101361.22
2023-10-10T00:55:41.219Z,101359.13
2023-10-10T00:58:09.675Z,101365.75
2023-10-10T01:00:43.540Z,101362.13
2023-10-10T01:03:23.588Z,101363.91
2023-10-10T01:06:05.842Z,101360.91
2023-10-10T01:08:56.742Z,101358.50
2023-10-10T01:11:24.858Z,101360.28
2023-10-10T01:13:58.238Z,101364.28
2023-10-10T01:16:28.249Z,101362.69
2023-10-10T01:19:01.355Z,101362.69
2023-10-10T01:21:34.152Z,101364.94
2023-10-10T01:24:08.843Z,101368.81
2023-10-10T01:26:37.828Z,101367.03
2023-10-10T01:29:34.925Z,101373.63
2023-10-10T01:32:03.817Z,101372.19
2023-10-10T01:34:46.280Z,101370.19
2023-10-10T01:37:36.608Z,101370.56
2023-10-10T01:40:17.631Z,101371.63
2023-10-10T01:43:00.683Z,101365.50
2023-10-10T01:45:28.824Z,101372.91
2023-10-10T01:47:59.460Z,101372.06
2023-10-10T01:50:28.639Z,101368.66
2023-10-10T01:52:57.678Z,101371.03
2023-10-10T01:55:26.511Z,101373.84
2023-10-10T01:57:56.248Z,101372.53
2023-10-10T02:00:26.943Z,101374.97
2023-10-10T02:02:57.333Z,101379.50
2023-10-10T02:05:37.962Z,101376.94
2023-10-10T02:08:10.696Z,101378.00
2023-10-10T02:10:44.685Z,101383.03
2023-10-10T02:13:12.682Z,101381.28
2023-10-10T02:15:41.071Z,101380.63
2023-10-10T02:18:14.313Z,101378.66
2023-10-10T02:20:48.078Z,101383.66
2023-10-10T02:23:35.195Z,101386.22
2023-10-10T02:26:24.875Z,101389.13
2023-10-10T02:29:12.694Z,101392.00
2023-10-10T02:31:43.067Z,101390.94
2023-10-10T02:34:11.888Z,101392.19
2023-10-10T02:36:42.383Z,101396.00
2023-10-10T02:39:18.614Z,101392.75
2023-10-10T02:41:51.265Z,101391.28
2023-10-10T02:44:40.275Z,101392.72
2023-10-10T02:47:07.972Z,101389.81
2023-10-10T02:49:38.671Z,101396.41
2023-10-10T02:52:08.175Z,101394.69
2023-10-10T02:54:44.405Z,101393.78
2023-10-10T02:57:27.526Z,101401.25
2023-10-10T03:00:17.202Z,101403.75
2023-10-10T03:02:55.159Z,101401.78
2023-10-10T03:05:42.088Z,101394.50
2023-10-10T03:08:34.726Z,101403.03
2023-10-10T03:11:03.828Z,101400.78
2023-10-10T03:13:38.549Z,101406.31
2023-10-10T03:16:34.203Z,101420.28
2023-10-10T03:19:01.991Z,101405.19
2023-10-10T03:21:45.480Z,101408.59
2023-10-10T03:24:28.918Z,101410.63
2023-10-10T03:27:14.985Z,101407.00
2023-10-10T03:29:48.905Z,101403.53
2023-10-10T03:32:48.755Z,101407.44
2023-10-10T03:35:34.718Z,101411.84
2023-10-10T03:38:22.212Z,101408.38
2023-10-10T03:40:55.392Z,101407.38
2023-10-10T03:43:41.631Z,101403.47
2023-10-10T03:46:27.641Z,101403.72
2023-10-10T03:49:14.298Z,101398.50
2023-10-10T03:52:00.803Z,101401.09
2023-10-10T03:54:47.163Z,101406.22
2023-10-10T03:57:33.042Z,101390.06
2023-10-10T04:00:19.434Z,101397.31
2023-10-10T04:03:05.087Z,101397.63
2023-10-10T04:05:52.603Z,101400.44
2023-10-10T04:08:38.474Z,101397.88
2023-10-10T04:11:24.801Z,101400.84
2023-10-10T04:14:11.245Z,101397.88
2023-10-10T04:16:57.088Z,101399.09
2023-10-10T04:19:43.495Z,101389.69
2023-10-10T04:22:29.414Z,101396.41
2023-10-10T04:25:15.828Z,101397.09
2023-10-10T04:28:01.608Z,101400.31
2023-10-10T04:30:47.923Z,101397.63
2023-10-10T04:33:33.576Z,101398.19
2023-10-10T04:36:19.832Z,101396.72
2023-10-10T04:39:05.698Z,101393.69
2023-10-10T04:41:51.620Z,101401.97
2023-10-10T04:44:37.404Z,101412.38
2023-10-10T04:47:23.809Z,101407.47
2023-10-10T04:50:09.734Z,101407.72
2023-10-10T04:52:55.749Z,101408.50
2023-10-10T04:55:42.306Z,101412.94
2023-10-10T04:58:28.263Z,101413.31
2023-10-10T05:01:14.070Z,101410.78
2023-10-10T05:04:04.003Z,101412.00
2023-10-10T05:06:49.699Z,101416.06
2023-10-10T05:09:35.530Z,101426.06
2023-10-10T05:12:21.774Z,101420.97
2023-10-10T05:15:07.429Z,101419.88
2023-10-10T05:17:53.337Z,101420.13
2023-10-10T05:20:39.648Z,101418.97
2023-10-10T05:23:27.605Z,101425.63
2023-10-10T05:25:56.327Z,101424.50
2023-10-10T05:28:25.087Z,101429.72
2023-10-10T05:30:56.895Z,101433.63
2023-10-10T05:33:27.530Z,101437.97
2023-10-10T05:36:00.419Z,101426.19
2023-10-10T05:38:28.012Z,101421.78
2023-10-10T05:40:58.866Z,101433.16
2023-10-10T05:43:35.066Z,101430.09
2023-10-10T05:46:05.322Z,101435.00
2023-10-10T05:48:33.881Z,101430.69
2023-10-10T05:51:02.169Z,101438.03
2023-10-10T05:53:34.236Z,101429.44
2023-10-10T05:56:14.016Z,101438.44
2023-10-10T05:58:46.542Z,101420.47
2023-10-10T06:01:15.906Z,101426.38
2023-10-10T06:03:46.139Z,101423.75
2023-10-10T06:06:15.113Z,101423.13
2023-10-10T06:08:43.691Z,101420.16
2023-10-10T06:11:16.005Z,101427.75
2023-10-10T06:13:47.975Z,101422.19
2023-10-10T06:16:18.798Z,101423.69
2023-10-10T06:18:49.226Z,101423.63
2023-10-10T06:21:17.732Z,101426.53
2023-10-10T06:23:46.206Z,101428.59
2023-10-10T06:26:14.446Z,101427.75
2023-10-10T06:28:49.090Z,101435.56
2023-10-10T06:31:22.049Z,101441.25
2023-10-10T06:33:53.683Z,101442.22
2023-10-10T06:36:21.587Z,101434.63
2023-10-10T06:39:00.725Z,101437.69
2023-10-10T06:41:29.506Z,101439.59
2023-10-10T06:43:58.855Z,101440.75
2023-10-10T06:46:33.546Z,101439.28
2023-10-10T06:49:05.872Z,101444.44
2023-10-10T06:51:42.446Z,101446.38
2023-10-10T06:54:20.854Z,101445.59
2023-10-10T06:57:06.956Z,101446.28
2023-10-10T06:59:36.718Z,101435.78
2023-10-10T07:02:22.863Z,101431.59
2023-10-10T07:04:54.058Z,101440.25
2023-10-10T07:07:23.007Z,101443.63
2023-10-10T07:09:59.395Z,101450.41
2023-10-10T07:12:30.136Z,101442.50
2023-10-10T07:14:58.190Z,101448.41
2023-10-10T07:17:28.832Z,101447.16
2023-10-10T07:20:02.881Z,101445.38
2023-10-10T07:22:37.045Z,101447.25
2023-10-10T07:25:09.323Z,101456.28
2023-10-10T07:27:41.020Z,101449.94
2023-10-10T07:30:17.022Z,101466.94
2023-10-10T07:32:45.982Z,101465.41
2023-10-10T07:35:16.594Z,101459.09
2023-10-10T07:37:45.651Z,101459.75
2023-10-10T07:40:29.581Z,101459.47
2023-10-10T07:43:00.724Z,101458.22
2023-10-10T07:45:31.451Z,101460.47
2023-10-10T07:47:59.104Z,101468.84
2023-10-10T07:50:36.380Z,101465.41
2023-10-10T07:53:06.967Z,101467.28
2023-10-10T07:55:53.948Z,101464.09
2023-10-10T07:58:49.602Z,101466.13
2023-10-10T08:01:19.992Z,101471.09
2023-10-10T08:03:49.041Z,101472.16
2023-10-10T08:06:20.292Z,101480.75
2023-10-10T08:09:10.328Z,101485.31
2023-10-10T08:11:38.880Z,101483.53
2023-10-10T08:14:10.422Z,101489.16
2023-10-10T08:16:44.273Z,101477.78
2023-10-10T08:19:12.260Z,101481.13
2023-10-10T08:21:40.851Z,101487.81
2023-10-10T08:24:13.370Z,101487.66
2023-10-10T08:26:41.001Z,101478.13
2023-10-10T08:29:13.399Z,101481.22
2023-10-10T08:31:45.874Z,101478.31
2023-10-10T08:34:16.524Z,101480.16
2023-10-10T08:36:45.403Z,101472.75
2023-10-10T08:39:26.484Z,101480.19
2023-10-10T08:41:54.708Z,101480.41
2023-10-10T08:44:23.425Z,101472.28
2023-10-10T08:46:53.587Z,101470.34
2023-10-10T08:49:21.499Z,101465.06
2023-10-10T08:51:54.099Z,101465.13
2023-10-10T08:54:22.437Z,101464.31
2023-10-10T08:57:04.397Z,101462.50
2023-10-10T08:59:33.142Z,101464.69
2023-10-10T09:02:19.081Z,101462.88
2023-10-10T09:04:47.511Z,101458.16
2023-10-10T09:07:21.769Z,101467.78
2023-10-10T09:09:56.711Z,101467.63
2023-10-10T09:12:24.703Z,101464.91
2023-10-10T09:14:52.817Z,101472.44
2023-10-10T09:17:30.083Z,101473.84
2023-10-10T09:19:58.411Z,101464.38
2023-10-10T09:22:44.113Z,101472.28
2023-10-10T09:25:28.320Z,101476.78
2023-10-10T09:28:11.979Z,101473.06
2023-10-10T09:30:46.827Z,101468.56
2023-10-10T09:33:14.993Z,101471.66
2023-10-10T09:35:47.299Z,101469.66
2023-10-10T09:38:20.601Z,101465.84
2023-10-10T09:40:59.751Z,101463.53
2023-10-10T09:43:36.886Z,101468.47
2023-10-10T09:46:20.661Z,101462.03
2023-10-10T09:49:18.983Z,101456.25
2023-10-10T09:51:58.813Z,101456.72
2023-10-10T09:54:27.067Z,101455.00
2023-10-10T09:56:55.821Z,101452.47
2023-10-10T09:59:29.862Z,101449.56
2023-10-10T10:02:06.325Z,101450.28
2023-10-10T10:04:43.492Z,101443.97
2023-10-10T10:07:42.434Z,101441.84
2023-10-10T10:10:35.126Z,101445.03
2023-10-10T10:13:27.739Z,101445.53
2023-10-10T10:16:20.938Z,101451.59
2023-10-10T10:18:53.336Z,101449.38
2023-10-10T10:21:31.174Z,101455.50
2023-10-10T10:24:17.184Z,101452.88
2023-10-10T10:27:08.049Z,101452.00
2023-10-10T10:29:38.536Z,101448.19
2023-10-10T10:32:08.910Z,101451.44
2023-10-10T10:34:36.574Z,101452.28
2023-10-10T10:37:21.645Z,101447.59
2023-10-10T10:40:09.846Z,101443.88
2023-10-10T10:42:40.137Z,101436.13
2023-10-10T10:45:26.980Z,101428.88
2023-10-10T10:48:01.044Z,101435.72
2023-10-10T10:50:31.818Z,101431.19
2023-10-10T10:53:00.945Z,101436.75
2023-10-10T10:55:31.271Z,101438.41
2023-10-10T10:58:09.157Z,101431.00
2023-10-10T11:01:00.081Z,101437.16
2023-10-10T11:03:38.519Z,101431.69
2023-10-10T11:06:08.153Z,101420.88
2023-10-10T11:08:57.705Z,101421.56
2023-10-10T11:11:29.638Z,101413.66
2023-10-10T11:14:02.130Z,101420.25
2023-10-10T11:16:38.398Z,101425.28
2023-10-10T11:19:25.661Z,101412.19
2023-10-10T11:21:57.576Z,101422.75
2023-10-10T11:24:33.111Z,101417.13
2023-10-10T11:27:12.865Z,101412.41
2023-10-10T11:29:52.050Z,101407.22
2023-10-10T11:32:30.524Z,101407.13
2023-10-10T11:35:19.263Z,101406.59
2023-10-10T11:37:50.196Z,101397.84
2023-10-10T11:40:28.694Z,101399.19
2023-10-10T11:43:04.964Z,101394.78
2023-10-10T11:45:41.359Z,101390.66
2023-10-10T11:48:14.438Z,101395.25
2023-10-10T11:50:46.866Z,101386.97
2023-10-10T11:53:26.540Z,101385.19
2023-10-10T11:55:56.179Z,101386.53
2023-10-10T11:58:37.290Z,101378.13
2023-10-10T12:01:10.618Z,101377.19
2023-10-10T12:03:42.434Z,101376.19
2023-10-10T12:06:15.785Z,101366.81
2023-10-10T12:08:52.439Z,101371.25
2023-10-10T12:11:21.839Z,101366.06
2023-10-10T12:13:51.774Z,101361.44
2023-10-10T12:16:26.729Z,101362.47
2023-10-10T12:18:55.459Z,101356.34
2023-10-10T12:21:24.000Z,101361.72
2023-10-10T12:23:59.538Z,101355.19
2023-10-10T12:26:29.036Z,101347.38
2023-10-10T12:28:56.639Z,101347.47
2023-10-10T12:31:24.286Z,101346.25
2023-10-10T12:33:55.278Z,101341.84
2023-10-10T12:36:24.425Z,101347.81
2023-10-10T12:38:52.063Z,101344.03
2023-10-10T12:41:22.633Z,101333.06
2023-10-10T12:43:50.795Z,101338.31
2023-10-10T12:46:21.899Z,101341.88
2023-10-10T12:48:53.206Z,101345.81
2023-10-10T12:51:25.198Z,101337.06
2023-10-10T12:54:07.128Z,101338.78
2023-10-10T12:56:40.691Z,101335.16
2023-10-10T12:59:25.879Z,101336.97
2023-10-10T13:02:01.105Z,101336.75
2023-10-10T13:04:37.526Z,101333.25
2023-10-10T13:07:05.496Z,101337.81
2023-10-10T13:09:34.027Z,101336.03
2023-10-10T13:12:05.479Z,101336.09
2023-10-10T13:14:36.190Z,101348.28
2023-10-10T13:17:22.838Z,101346.50
2023-10-10T13:19:50.621Z,101341.88
2023-10-10T13:22:23.685Z,101349.97
2023-10-10T13:24:51.618Z,101341.88
2023-10-10T13:27:22.118Z,101345.09
2023-10-10T13:29:49.820Z,101337.34
2023-10-10T13:32:17.578Z,101338.56
2023-10-10T13:34:47.036Z,101336.00
2023-10-10T13:37:14.899Z,101337.25
2023-10-10T13:39:49.089Z,101330.16
2023-10-10T13:42:19.003Z,101326.28
2023-10-10T13:44:49.925Z,101324.50
2023-10-10T13:47:18.412Z,101325.53
2023-10-10T13:49:46.394Z,101329.22
2023-10-10T13:52:17.632Z,101323.75
2023-10-10T13:54:45.243Z,101325.53
2023-10-10T13:57:13.960Z,101315.91
2023-10-10T13:59:41.752Z,101317.91
2023-10-10T14:02:12.479Z,101317.31
2023-10-10T14:04:50.370Z,101316.78
2023-10-10T14:07:18.538Z,101313.47
2023-10-10T14:10:01.666Z,101313.00
2023-10-10T14:12:33.955Z,101308.09
2023-10-10T14:15:03.046Z,101312.31
2023-10-10T14:17:31.557Z,101311.75
2023-10-10T14:20:00.656Z,101310.63
2023-10-10T14:22:34.922Z,101312.03
2023-10-10T14:25:13.776Z,101305.31
2023-10-10T14:27:45.204Z,101305.91
2023-10-10T14:30:22.122Z,101305.53
2023-10-10T14:32:56.218Z,101304.84
2023-10-10T14:35:25.252Z,101304.47
2023-10-10T14:38:01.575Z,101310.22
2023-10-10T14:40:30.004Z,101303.47
2023-10-10T14:42:57.571Z,101301.75
2023-10-10T14:45:29.989Z,101303.16
2023-10-10T14:47:58.151Z,101296.00
2023-10-10T14:50:25.969Z,101289.94
2023-10-10T14:52:54.918Z,101294.28
2023-10-10T14:55:25.694Z,101288.34
2023-10-10T14:57:57.376Z,101287.19
2023-10-10T15:00:27.116Z,101285.56
2023-10-10T15:02:55.641Z,101289.91
2023-10-10T15:05:25.271Z,101285.66
2023-10-10T15:07:54.696Z,101289.25
2023-10-10T15:10:27.514Z,101288.38
2023-10-10T15:12:56.216Z,101293.69
2023-10-10T15:15:24.767Z,101286.88
2023-10-10T15:17:53.005Z,101292.34
2023-10-10T15:20:21.052Z,101284.59
2023-10-10T15:22:52.881Z,101294.25
2023-10-10T15:25:22.856Z,101287.91
2023-10-10T15:27:50.819Z,101282.69
2023-10-10T15:30:18.531Z,101289.13
2023-10-10T15:32:48.670Z,101280.44
2023-10-10T15:35:18.560Z,101275.16
2023-10-10T15:37:46.276Z,101265.63
2023-10-10T15:40:22.414Z,101268.44
2023-10-10T15:42:53.629Z,101266.84
2023-10-10T15:45:24.261Z,101267.03
2023-10-10T15:47:55.948Z,101265.34
2023-10-10T15:50:23.773Z,101265.34
2023-10-10T15:52:51.765Z,101261.84
2023-10-10T15:55:25.494Z,101269.69
2023-10-10T15:57:54.723Z,101265.25
2023-10-10T16:00:34.130Z,101264.28
2023-10-10T16:03:08.210Z,101257.31
2023-10-10T16:05:46.373Z,101258.34
2023-10-10T16:08:13.963Z,101257.41
2023-10-10T16:10:43.070Z,101252.97
2023-10-10T16:13:11.204Z,101261.56
2023-10-10T16:15:39.293Z,101251.00
2023-10-10T16:18:07.538Z,101248.56
2023-10-10T16:20:37.760Z,101237.22
2023-10-10T16:23:09.459Z,101231.25
2023-10-10T16:25:38.675Z,101231.25
2023-10-10T16:28:07.055Z,101226.16
2023-10-10T16:30:40.550Z,101230.69
2023-10-10T16:33:10.424Z,101223.63
2023-10-10T16:35:47.500Z,101216.81
2023-10-10T16:38:22.983Z,101218.06
2023-10-10T16:40:54.394Z,101211.06
2023-10-10T16:43:25.462Z,101209.34
2023-10-10T16:45:53.222Z,101207.69
2023-10-10T16:48:21.143Z,101202.84
2023-10-10T16:50:48.747Z,101202.75
2023-10-10T16:53:16.192Z,101191.34
2023-10-10T16:55:43.673Z,101199.47
2023-10-10T16:58:15.674Z,101194.25
2023-10-10T17:00:49.298Z,101186.44
2023-10-10T17:03:17.920Z,101178.41
2023-10-10T17:05:52.545Z,101178.84
2023-10-10T17:08:21.201Z,101184.13
2023-10-10T17:10:51.571Z,101178.03
2023-10-10T17:13:21.185Z,101184.06
2023-10-10T17:15:50.191Z,101181.69
2023-10-10T17:18:21.595Z,101180.84
2023-10-10T17:20:58.555Z,101179.03
2023-10-10T17:23:26.391Z,101179.16
2023-10-10T17:25:56.773Z,101175.41
2023-10-10T17:28:27.427Z,101173.88
2023-10-10T17:30:57.516Z,101168.84
2023-10-10T17:33:26.085Z,101168.66
2023-10-10T17:35:54.191Z,101165.09
2023-10-10T17:38:22.705Z,101178.19
2023-10-10T17:40:52.300Z,101165.00
2023-10-10T17:43:22.483Z,101156.34
2023-10-10T17:45:50.456Z,101156.06
2023-10-10T17:48:18.552Z,101155.88
2023-10-10T17:50:46.415Z,101160.38
2023-10-10T17:53:15.850Z,101148.81
2023-10-10T17:55:44.448Z,101143.53
2023-10-10T17:58:12.253Z,101140.31
2023-10-10T18:00:40.009Z,101135.03
2023-10-10T18:03:11.042Z,101139.44
2023-10-10T18:05:40.769Z,101144.91
2023-10-10T18:08:10.026Z,101136.34
2023-10-10T18:10:38.289Z,101129.56
2023-10-10T18:13:11.673Z,101125.97
2023-10-10T18:15:40.149Z,101133.31
2023-10-10T18:18:09.351Z,101118.22
2023-10-10T18:20:41.875Z,101121.72
2023-10-10T18:23:10.520Z,101116.44
2023-10-10T18:25:41.323Z,101118.91
2023-10-10T18:28:09.867Z,101109.75
2023-10-10T18:30:38.832Z,101115.69
2023-10-10T18:33:09.380Z,101109.09
2023-10-10T18:35:37.198Z,101111.38
2023-10-10T18:38:06.993Z,101110.34
2023-10-10T18:40:40.901Z,101096.84
2023-10-10T18:43:10.249Z,101087.44
2023-10-10T18:45:39.458Z,101077.81
2023-10-10T18:48:07.447Z,101073.19
2023-10-10T18:50:36.591Z,101065.28
2023-10-10T18:53:04.398Z,101073.47
2023-10-10T18:55:32.309Z,101066.97
2023-10-10T18:58:04.646Z,101069.03
2023-10-10T19:00:35.469Z,101071.88
2023-10-10T19:03:08.292Z,101071.59
2023-10-10T19:05:36.891Z,101071.19
2023-10-10T19:08:04.916Z,101071.38
2023-10-10T19:10:32.645Z,101075.63
2023-10-10T19:13:02.005Z,101067.91
2023-10-10T19:15:29.538Z,101054.03
2023-10-10T19:18:00.531Z,101049.63
2023-10-10T19:20:37.831Z,101043.47
2023-10-10T19:23:06.073Z,101035.75
2023-10-10T19:25:34.037Z,101022.75
2023-10-10T19:28:02.969Z,101019.25
2023-10-10T19:30:34.559Z,101009.66
2023-10-10T19:33:05.823Z,101013.06
2023-10-10T19:35:33.475Z,101000.72
2023-10-10T19:38:01.069Z,100998.06
2023-10-10T19:40:31.134Z,100997.13
2023-10-10T19:42:58.942Z,100997.03
2023-10-10T19:45:30.565Z,100998.94
2023-10-10T19:48:06.958Z,100993.72
2023-10-10T19:50:45.945Z,100995.50
2023-10-10T19:53:14.669Z,100987.72
2023-10-10T19:55:44.711Z,100996.09
2023-10-10T19:58:13.896Z,100975.06
2023-10-10T20:00:46.785Z,100979.22
2023-10-10T20:03:19.206Z,100984.69
2023-10-10T20:05:47.063Z,100979.13
2023-10-10T20:08:15.056Z,100970.44
2023-10-10T20:10:48.545Z,100965.94
2023-10-10T20:13:21.070Z,100963.94
2023-10-10T20:15:48.637Z,100972.03
2023-10-10T20:18:16.897Z,100962.13
2023-10-10T20:20:44.784Z,100962.59
2023-10-10T20:23:12.452Z,100962.97
2023-10-10T20:25:41.693Z,100958.63
2023-10-10T20:28:11.013Z,100952.41
2023-10-10T20:30:44.555Z,100948.53
2023-10-10T20:33:16.978Z,100943.56
2023-10-10T20:35:46.134Z,100935.53
2023-10-10T20:38:14.951Z,100931.31
2023-10-10T20:40:44.603Z,100930.44
2023-10-10T20:43:13.946Z,100926.03
2023-10-10T20:45:42.641Z,100915.47
2023-10-10T20:48:13.850Z,100928.09
2023-10-10T20:50:42.276Z,100917.84
2023-10-10T20:53:10.471Z,100920.50
2023-10-10T20:55:38.295Z,100912.44
2023-10-10T20:58:06.030Z,100916.72
2023-10-10T21:00:35.866Z,100909.72
2023-10-10T21:03:07.430Z,100909.41
2023-10-10T21:05:40.451Z,100908.16
2023-10-10T21:08:08.670Z,100895.69
2023-10-10T21:10:41.436Z,100894.75
2023-10-10T21:13:09.687Z,100895.69
2023-10-10T21:15:37.827Z,100898.31
2023-10-10T21:18:09.292Z,100886.81
2023-10-10T21:23:11.832Z,100894.75
2023-10-10T21:25:42.511Z,100887.47
2023-10-10T21:28:10.137Z,100877.94
2023-10-10T21:30:40.153Z,100864.75
2023-10-10T21:33:08.419Z,100859.59
2023-10-10T21:35:36.824Z,100855.25
2023-10-10T21:38:04.960Z,100857.78
2023-10-10T21:40:34.043Z,100857.78
2023-10-10T21:43:01.830Z,100858.00
2023-10-10T21:45:35.697Z,100854.09
2023-10-10T21:48:05.581Z,100847.13
2023-10-10T21:50:33.870Z,100849.88
2023-10-10T21:53:02.049Z,100842.69
2023-10-10T21:55:29.653Z,100835.72
2023-10-10T21:57:58.202Z,100832.97
2023-10-10T22:00:32.059Z,100831.41
2023-10-10T22:03:06.854Z,100824.50
2023-10-10T22:05:35.976Z,100813.84
2023-10-10T22:08:07.594Z,100816.41
2023-10-10T22:10:36.699Z,100806.03
2023-10-10T22:13:07.659Z,100806.59
2023-10-10T22:15:36.359Z,100795.38
2023-10-10T22:18:08.008Z,100784.75
2023-10-10T22:20:35.906Z,100785.75
2023-10-10T22:23:05.858Z,100784.75
2023-10-10T22:25:36.094Z,100781.97
2023-10-10T22:28:05.641Z,100780.28
2023-10-10T22:30:38.462Z,100764.34
2023-10-10T22:33:11.450Z,100759.81
2023-10-10T22:35:40.449Z,100765.09
2023-10-10T22:38:08.191Z,100759.81
2023-10-10T22:40:36.024Z,100750.22
2023-10-10T22:43:05.358Z,100759.59
2023-10-10T22:45:36.292Z,100759.31
2023-10-10T22:48:08.709Z,100743.25
2023-10-10T22:50:37.067Z,100735.97
2023-10-10T22:53:05.891Z,100724.56
2023-10-10T22:55:36.921Z,100723.22
2023-10-10T22:58:09.186Z,100717.19
2023-10-10T23:00:38.156Z,100704.72
2023-10-10T23:03:11.981Z,100703.66
2023-10-10T23:05:40.997Z,100692.16
2023-10-10T23:08:09.052Z,100685.94
2023-10-10T23:10:40.145Z,100686.53
2023-10-10T23:13:07.914Z,100680.44
2023-10-10T23:15:38.493Z,100674.94
2023-10-10T23:18:11.776Z,100666.06
2023-10-10T23:20:42.496Z,100655.28
2023-10-10T23:23:12.416Z,100652.63
2023-10-10T23:25:40.673Z,100650.75
2023-10-10T23:28:11.593Z,100643.78
2023-10-10T23:30:42.025Z,100639.44
2023-10-10T23:33:13.160Z,100629.72
2023-10-10T23:35:42.538Z,100621.06
2023-10-10T23:38:10.814Z,100617.34
2023-10-10T23:40:40.022Z,100619.06
2023-10-10T23:43:10.933Z,100605.84
2023-10-10T23:45:44.517Z,100610.28
2023-10-10T23:48:17.020Z,100605.72
2023-10-10T23:50:46.404Z,100598.78
2023-10-10T23:53:14.584Z,100595.38
2023-10-10T23:55:46.378Z,100596.00
2023-10-10T23:58:15.534Z,100585.34
